Time;durP1;ratioP1;P1;durP2;ratioP2;P2;SDS_P1;SDS_P2;PMS_P1;PMS_P2;Temp;Humidity;BMP_temperature;BMP_pressure;BME280_temperature;BME280_humidity;BME280_pressure;Samples;Min_cycle;Max_cycle;Signal;HPM_P1;HPM_P2
2021/07/25 00:02:08;;;;;;;12.37;11.10;;;18.70;99.90;;;;;;6239707;22;20197;-92
2021/07/25 00:04:55;;;;;;;12.80;11.60;;;18.70;99.90;;;;;;6238785;22;20441;-91
2021/07/25 00:07:24;;;;;;;14.07;12.57;;;18.70;99.90;;;;;;6239186;22;20396;-91
2021/07/25 00:09:50;;;;;;;14.20;12.40;;;18.70;99.90;;;;;;6262248;22;20381;-91
2021/07/25 00:12:16;;;;;;;13.20;11.97;;;18.60;99.90;;;;;;6236818;22;20444;-92
2021/07/25 00:14:45;;;;;;;14.53;11.80;;;18.70;99.90;;;;;;6239508;22;20652;-92
2021/07/25 00:17:13;;;;;;;13.17;11.77;;;18.70;99.90;;;;;;6212654;22;20174;-93
2021/07/25 00:19:41;;;;;;;12.33;11.03;;;18.80;99.90;;;;;;6239425;22;20393;-93
2021/07/25 01:31:49;;;;;;;16.13;14.60;;;18.30;99.90;;;;;;6269890;22;20478;-92
2021/07/25 01:34:47;;;;;;;15.67;14.20;;;18.40;99.90;;;;;;6241292;22;20824;-93
2021/07/25 01:37:17;;;;;;;13.97;12.60;;;18.40;99.90;;;;;;6238754;22;20388;-92
2021/07/25 01:39:48;;;;;;;14.67;12.90;;;18.50;99.90;;;;;;6239134;22;20401;-93
2021/07/25 01:42:31;;;;;;;14.83;13.30;;;18.50;99.90;;;;;;6262821;22;20401;-90
2021/07/25 01:44:59;;;;;;;16.17;13.50;;;18.60;99.90;;;;;;6238920;22;20393;-89
2021/07/25 01:47:27;;;;;;;13.37;11.80;;;18.60;99.90;;;;;;6267507;22;20396;-92
2021/07/25 01:53:04;;;;;;;15.70;14.10;;;18.60;99.90;;;;;;6244418;22;20401;-92
2021/07/25 01:55:30;;;;;;;14.57;13.03;;;18.60;99.90;;;;;;6268906;22;20369;-92
2021/07/25 01:57:55;;;;;;;16.40;12.53;;;18.50;99.90;;;;;;6240267;22;20162;-91
2021/07/25 02:00:21;;;;;;;16.53;12.87;;;18.50;99.90;;;;;;6267556;22;20471;-92
2021/07/25 02:02:47;;;;;;;15.67;13.47;;;18.60;99.90;;;;;;6265137;22;20441;-90
2021/07/25 02:05:13;;;;;;;15.63;13.93;;;18.60;99.90;;;;;;6274956;22;20158;-91
2021/07/25 02:07:43;;;;;;;14.97;13.37;;;18.50;99.90;;;;;;6291268;22;20189;-92
2021/07/25 02:10:12;;;;;;;17.80;14.37;;;18.50;99.90;;;;;;6273406;22;20154;-92
2021/07/25 02:12:38;;;;;;;15.60;14.00;;;18.60;99.90;;;;;;6240399;22;20875;-90
2021/07/25 02:15:05;;;;;;;17.00;15.10;;;18.60;99.90;;;;;;6268508;22;20388;-91
2021/07/25 02:17:31;;;;;;;16.47;14.40;;;18.60;99.90;;;;;;6292256;22;20166;-90
2021/07/25 02:19:56;;;;;;;15.70;14.20;;;18.60;99.90;;;;;;6264206;22;20475;-90
2021/07/25 02:22:22;;;;;;;15.80;14.27;;;18.60;99.90;;;;;;6276953;22;20603;-90
2021/07/25 02:24:48;;;;;;;14.33;12.93;;;18.60;99.90;;;;;;6266378;22;20165;-91
2021/07/25 02:27:13;;;;;;;14.13;12.73;;;18.50;99.90;;;;;;6268066;22;20226;-94
2021/07/25 02:29:39;;;;;;;14.83;13.43;;;18.50;99.90;;;;;;6240041;22;20503;-92
2021/07/25 02:32:05;;;;;;;15.90;13.53;;;18.60;99.90;;;;;;6239131;22;20202;-91
2021/07/25 02:34:31;;;;;;;15.27;12.90;;;18.60;99.90;;;;;;6239854;22;20165;-92
2021/07/25 02:36:56;;;;;;;14.70;13.17;;;18.60;99.90;;;;;;6266954;22;20399;-91
2021/07/25 02:39:24;;;;;;;14.37;12.80;;;18.70;99.90;;;;;;6266747;22;20166;-93
2021/07/25 02:41:53;;;;;;;16.00;12.03;;;18.70;99.90;;;;;;6239553;22;20166;-92
2021/07/25 02:44:19;;;;;;;16.70;13.47;;;18.60;99.90;;;;;;6266916;22;20388;-92
2021/07/25 02:46:45;;;;;;;15.57;12.90;;;18.60;99.90;;;;;;6266204;22;20389;-91
2021/07/25 02:49:10;;;;;;;14.77;12.57;;;18.60;99.90;;;;;;6267156;22;20158;-92
2021/07/25 02:51:36;;;;;;;16.87;13.93;;;18.60;99.90;;;;;;6240709;22;20525;-92
2021/07/25 02:54:02;;;;;;;15.40;13.80;;;18.50;99.90;;;;;;6266706;22;20479;-92
2021/07/25 02:56:28;;;;;;;14.70;13.20;;;18.50;99.90;;;;;;6264957;22;20377;-90
2021/07/25 02:58:53;;;;;;;21.50;14.80;;;18.40;99.90;;;;;;6267213;22;20150;-91
2021/07/25 03:01:19;;;;;;;17.70;14.67;;;18.30;99.90;;;;;;6265977;22;20177;-92
2021/07/25 03:03:45;;;;;;;18.67;14.10;;;18.30;99.90;;;;;;6265677;22;20585;-90
2021/07/25 03:06:11;;;;;;;16.10;14.50;;;18.30;99.90;;;;;;6266105;22;20337;-90
2021/07/25 03:08:37;;;;;;;16.20;14.47;;;18.20;99.90;;;;;;6264998;22;20373;-91
2021/07/25 03:11:07;;;;;;;17.70;14.20;;;18.20;99.90;;;;;;6266113;22;20668;-91
2021/07/25 03:13:33;;;;;;;16.47;14.50;;;18.30;99.90;;;;;;6264365;22;20488;-91
2021/07/25 03:16:03;;;;;;;16.20;14.43;;;18.20;99.90;;;;;;6265670;22;20391;-91
2021/07/25 03:18:30;;;;;;;14.87;13.37;;;18.30;99.90;;;;;;6266914;22;20204;-90
2021/07/25 03:20:56;;;;;;;15.20;12.73;;;18.30;99.90;;;;;;6267343;22;20471;-90
2021/07/25 03:23:37;;;;;;;16.43;12.90;;;18.40;99.90;;;;;;6238200;22;20388;-90
2021/07/25 03:26:03;;;;;;;17.90;12.63;;;18.40;99.90;;;;;;6239089;22;20245;-90
2021/07/25 03:28:41;;;;;;;14.70;12.07;;;18.50;99.90;;;;;;6262533;22;20749;-90
2021/07/25 03:31:07;;;;;;;14.70;12.10;;;18.50;99.90;;;;;;6237155;22;20255;-90
2021/07/25 03:33:32;;;;;;;12.83;11.53;;;18.50;99.90;;;;;;6240071;22;20401;-89
2021/07/25 03:35:58;;;;;;;14.10;12.20;;;18.50;99.90;;;;;;6265639;22;20237;-90
2021/07/25 03:38:25;;;;;;;12.97;11.67;;;18.50;99.90;;;;;;6240453;22;20604;-90
2021/07/25 03:40:51;;;;;;;11.87;10.80;;;18.50;99.90;;;;;;6263420;22;20408;-89
2021/07/25 03:43:17;;;;;;;13.03;11.20;;;18.50;99.90;;;;;;6237005;22;20385;-90
2021/07/25 03:45:45;;;;;;;11.77;10.63;;;18.60;99.90;;;;;;6264294;22;20161;-90
2021/07/25 03:48:11;;;;;;;12.53;11.30;;;18.60;99.90;;;;;;6238958;22;20501;-90
2021/07/25 03:50:43;;;;;;;16.43;12.10;;;18.60;99.90;;;;;;6236618;22;20443;-90
2021/07/25 03:53:09;;;;;;;13.73;12.10;;;18.50;99.90;;;;;;6236387;22;20888;-90
2021/07/25 03:55:36;;;;;;;12.80;11.60;;;18.30;99.90;;;;;;6263170;22;20396;-90
2021/07/25 03:58:03;;;;;;;12.80;11.10;;;18.20;99.90;;;;;;6236837;22;20716;-90
2021/07/25 04:00:28;;;;;;;13.17;11.60;;;18.20;99.90;;;;;;6237553;22;20452;-90
2021/07/25 04:03:00;;;;;;;11.63;9.50;;;18.20;99.90;;;;;;6237072;22;20619;-90
2021/07/25 04:05:34;;;;;;;12.00;10.90;;;18.30;99.90;;;;;;6264834;22;20169;-90
2021/07/25 04:08:12;;;;;;;12.07;10.97;;;18.40;99.90;;;;;;6236906;22;20440;-90
2021/07/25 04:10:45;;;;;;;14.57;12.03;;;18.20;99.90;;;;;;6236835;22;20503;-90
2021/07/25 04:13:12;;;;;;;12.20;11.10;;;18.20;99.90;;;;;;6265909;22;20396;-90
2021/07/25 04:15:46;;;;;;;13.23;12.13;;;18.20;99.90;;;;;;6236560;22;20392;-90
2021/07/25 04:18:12;;;;;;;17.00;13.37;;;18.00;99.90;;;;;;6263913;22;20392;-89
2021/07/25 04:20:38;;;;;;;15.23;13.67;;;18.00;99.90;;;;;;6235919;22;21417;-90
2021/07/25 04:23:04;;;;;;;15.87;14.13;;;18.00;99.90;;;;;;6267671;22;20480;-90
2021/07/25 04:25:31;;;;;;;15.80;14.13;;;18.00;99.90;;;;;;6266097;22;20581;-90
2021/07/25 04:28:48;;;;;;;;;;;;;;;;;;;;;
2021/07/25 04:31:36;;;;;;;13.77;12.30;;;18.00;99.90;;;;;;6260451;22;20440;-91
2021/07/25 04:34:10;;;;;;;15.20;13.70;;;17.90;99.90;;;;;;6239627;22;20790;-92
2021/07/25 04:36:37;;;;;;;14.53;13.10;;;17.90;99.90;;;;;;6266536;22;20396;-91
2021/07/25 04:39:32;;;;;;;17.17;13.50;;;17.80;99.90;;;;;;6235958;22;20419;-92
2021/07/25 04:41:58;;;;;;;14.50;13.10;;;18.00;99.90;;;;;;6233122;22;20398;-90
2021/07/25 04:44:45;;;;;;;17.27;14.50;;;18.10;99.90;;;;;;6236972;22;20405;-91
2021/07/25 04:48:12;;;;;;;16.83;15.00;;;18.20;99.90;;;;;;6265720;22;20387;-90
2021/07/25 04:50:54;;;;;;;16.20;14.50;;;18.20;99.90;;;;;;6234548;22;20425;-91
2021/07/25 04:54:00;;;;;;;16.60;14.90;;;18.20;99.90;;;;;;6265474;22;20626;-92
2021/07/25 04:57:10;;;;;;;17.23;15.53;;;18.10;99.90;;;;;;6265676;22;20876;-91
2021/07/25 05:00:16;;;;;;;15.93;14.37;;;18.20;99.90;;;;;;6239301;22;20956;-92
2021/07/25 05:02:57;;;;;;;16.13;14.57;;;18.40;99.90;;;;;;6239023;22;20391;-92
2021/07/25 05:05:35;;;;;;;16.87;14.10;;;18.50;99.90;;;;;;6240159;22;20396;-92
2021/07/25 05:08:20;;;;;;;14.50;13.00;;;18.60;99.90;;;;;;6240483;22;20873;-91
2021/07/25 05:10:50;;;;;;;15.60;13.37;;;18.70;99.90;;;;;;6267084;22;20515;-91
2021/07/25 05:13:33;;;;;;;15.50;13.80;;;18.80;99.90;;;;;;6239623;22;20537;-92
2021/07/25 05:29:00;;;;;;;16.23;14.77;;;18.70;99.90;;;;;;6299732;22;20439;-91
2021/07/25 05:31:38;;;;;;;15.40;13.73;;;18.80;99.90;;;;;;6280352;22;20466;-91
2021/07/25 05:34:07;;;;;;;15.63;13.77;;;18.80;99.90;;;;;;6301892;22;20394;-91
2021/07/25 05:36:35;;;;;;;15.80;14.20;;;18.90;99.90;;;;;;6307976;22;20786;-92
2021/07/25 05:39:26;;;;;;;15.30;13.07;;;19.00;99.90;;;;;;6303534;22;20388;-90
2021/07/25 05:42:47;;;;;;;13.97;12.53;;;19.10;99.90;;;;;;6280342;22;20384;-91
2021/07/25 05:46:14;;;;;;;15.03;13.43;;;19.10;99.90;;;;;;6288140;22;20418;-90
2021/07/25 05:48:52;;;;;;;14.70;12.50;;;19.10;99.90;;;;;;6136811;23;20524;-90
2021/07/25 05:53:56;;;;;;;14.30;12.57;;;19.10;99.90;;;;;;6271183;22;20441;-91
2021/07/25 05:56:31;;;;;;;14.27;12.93;;;19.20;99.90;;;;;;6215885;22;20423;-92
2021/07/25 05:59:06;;;;;;;12.80;11.50;;;19.30;99.90;;;;;;6239607;22;20423;-92
2021/07/25 06:01:32;;;;;;;13.40;12.00;;;19.40;99.90;;;;;;6266978;22;20377;-92
2021/07/25 06:03:58;;;;;;;13.37;12.07;;;19.50;99.90;;;;;;6241179;22;20863;-92
2021/07/25 06:06:35;;;;;;;14.07;12.20;;;19.60;99.90;;;;;;6239694;22;20567;-90
2021/07/25 06:09:12;;;;;;;13.23;11.93;;;19.70;99.90;;;;;;6238431;22;20161;-91
2021/07/25 06:11:41;;;;;;;13.97;12.47;;;19.90;99.90;;;;;;6264761;22;20440;-90
2021/07/25 06:14:07;;;;;;;12.43;10.37;;;20.10;99.90;;;;;;6266429;22;20385;-90
2021/07/25 06:16:33;;;;;;;11.73;10.70;;;20.30;99.90;;;;;;6265578;22;20460;-91
2021/07/25 06:18:59;;;;;;;12.60;11.50;;;20.50;99.90;;;;;;6266972;22;20604;-90
2021/07/25 06:21:29;;;;;;;14.03;10.10;;;20.70;99.90;;;;;;6239341;22;20174;-90
2021/07/25 06:23:55;;;;;;;11.10;8.33;;;20.70;99.90;;;;;;6265314;22;20596;-90
2021/07/25 06:26:31;;;;;;;9.60;8.50;;;20.70;99.90;;;;;;6242823;22;20389;-89
2021/07/25 06:28:57;;;;;;;11.33;9.40;;;20.60;99.90;;;;;;6267519;22;20393;-90
2021/07/25 06:31:22;;;;;;;9.53;8.67;;;20.50;99.90;;;;;;6238807;22;20198;-90
2021/07/25 06:33:48;;;;;;;11.67;8.50;;;20.60;99.90;;;;;;6243224;22;20162;-92
2021/07/25 06:36:14;;;;;;;9.87;8.93;;;20.50;99.90;;;;;;6238012;22;20540;-89
2021/07/25 06:38:57;;;;;;;9.40;8.60;;;20.70;99.90;;;;;;6263460;22;20182;-90
2021/07/25 06:41:23;;;;;;;10.17;9.17;;;20.70;99.90;;;;;;6240535;22;20428;-90
2021/07/25 06:43:52;;;;;;;9.70;8.80;;;20.80;99.90;;;;;;6241720;22;20396;-90
2021/07/25 06:46:43;;;;;;;9.80;8.73;;;21.00;99.90;;;;;;6238272;22;20170;-89
2021/07/25 06:53:11;;;;;;;10.13;9.13;;;21.40;99.90;;;;;;6210717;22;20453;-89
2021/07/25 06:59:59;;;;;;;12.60;9.60;;;21.60;99.90;;;;;;6051439;23;20502;-89
2021/07/25 07:03:00;;;;;;;10.37;9.07;;;21.50;99.90;;;;;;6128003;23;20401;-89
2021/07/25 07:05:29;;;;;;;10.20;8.47;;;21.60;99.90;;;;;;6208963;23;20492;-89
2021/07/25 07:08:03;;;;;;;9.60;8.63;;;21.70;99.90;;;;;;6207323;23;20397;-88
2021/07/25 07:10:34;;;;;;;9.87;9.03;;;21.90;99.90;;;;;;6208279;23;20410;-87
2021/07/25 07:13:02;;;;;;;9.60;8.70;;;22.20;99.90;;;;;;6208494;23;20405;-88
2021/07/25 07:15:30;;;;;;;10.40;9.40;;;21.90;99.90;;;;;;6206473;23;20903;-88
2021/07/25 07:18:00;;;;;;;8.57;7.70;;;21.80;99.90;;;;;;6207429;23;20969;-89
2021/07/25 07:20:27;;;;;;;8.60;7.90;;;22.00;99.90;;;;;;6207985;23;20394;-88
2021/07/25 07:23:41;;;;;;;10.20;8.40;;;22.20;99.90;;;;;;6207041;23;20413;-93
2021/07/25 10:33:07;;;;;;;9.20;8.30;;;21.70;99.90;;;;;;6253190;22;20452;-95
2021/07/25 11:12:18;;;;;;;9.00;8.20;;;21.50;99.90;;;;;;6295745;22;20751;-92
2021/07/25 11:15:10;;;;;;;8.60;7.80;;;21.70;99.90;;;;;;6293836;22;20404;-91
2021/07/25 12:05:30;;;;;;;7.03;6.40;;;22.00;99.90;;;;;;6251835;22;20958;-92
2021/07/25 12:08:09;;;;;;;7.27;6.57;;;21.90;99.90;;;;;;6241268;22;20404;-94
2021/07/25 12:10:35;;;;;;;7.53;6.47;;;21.30;99.90;;;;;;6240563;22;20161;-90
2021/07/25 12:13:05;;;;;;;7.63;6.93;;;21.10;99.90;;;;;;6241623;22;20419;-93
2021/07/25 12:15:31;;;;;;;7.37;6.77;;;21.10;99.90;;;;;;6246517;22;20162;-91
2021/07/25 12:17:58;;;;;;;6.77;6.20;;;21.20;99.90;;;;;;6246977;22;20496;-93
2021/07/25 12:20:35;;;;;;;7.03;6.43;;;21.30;99.90;;;;;;6244790;22;20454;-93
2021/07/25 12:23:04;;;;;;;6.20;5.70;;;21.40;99.90;;;;;;6245951;22;20404;-93
2021/07/25 12:25:35;;;;;;;5.60;5.10;;;21.30;99.90;;;;;;6245526;22;20399;-92
2021/07/25 12:28:13;;;;;;;6.83;6.20;;;21.30;99.90;;;;;;6266078;22;20416;-92
2021/07/25 12:30:47;;;;;;;7.17;6.47;;;21.30;99.90;;;;;;6253267;22;20714;-92
2021/07/25 12:33:15;;;;;;;6.93;6.23;;;21.20;99.90;;;;;;6249302;22;20400;-92
2021/07/25 12:35:51;;;;;;;6.47;5.97;;;21.10;99.90;;;;;;6251000;22;20384;-91
2021/07/25 12:38:18;;;;;;;6.83;6.23;;;21.10;99.90;;;;;;6269549;22;20448;-91
2021/07/25 12:40:55;;;;;;;6.73;6.13;;;21.20;99.90;;;;;;6270432;22;20459;-92
2021/07/25 12:43:27;;;;;;;7.20;6.50;;;21.20;99.90;;;;;;6252126;22;20409;-93
2021/07/25 12:45:53;;;;;;;7.30;6.57;;;21.40;99.90;;;;;;6248227;22;20416;-95
2021/07/25 12:48:25;;;;;;;6.90;6.40;;;21.40;99.90;;;;;;6247979;22;20700;-92
2021/07/25 12:53:39;;;;;;;6.77;6.10;;;21.40;99.90;;;;;;6266035;22;20722;-90
2021/07/25 12:56:07;;;;;;;6.90;6.30;;;21.50;99.90;;;;;;6266550;22;20369;-89
2021/07/25 12:58:36;;;;;;;7.80;7.10;;;21.80;99.90;;;;;;6239419;22;20442;-89
2021/07/25 13:01:17;;;;;;;6.93;6.33;;;22.10;99.90;;;;;;6240876;22;20436;-90
2021/07/25 13:03:46;;;;;;;7.47;6.67;;;22.60;99.90;;;;;;6239385;22;20410;-90
2021/07/25 13:06:22;;;;;;;7.83;7.20;;;22.20;99.90;;;;;;6240877;22;20392;-90
2021/07/25 13:08:59;;;;;;;6.90;6.30;;;21.90;99.90;;;;;;6269734;22;20384;-94
2021/07/25 13:11:27;;;;;;;6.70;6.10;;;22.10;99.90;;;;;;6242294;22;20392;-93
2021/07/25 13:14:03;;;;;;;7.23;6.53;;;22.10;99.90;;;;;;6241172;22;20898;-94
2021/07/25 13:16:30;;;;;;;7.70;7.00;;;22.50;99.90;;;;;;6243269;22;20476;-92
2021/07/25 13:18:57;;;;;;;6.87;6.17;;;22.60;99.90;;;;;;6269972;22;20387;-89
2021/07/25 13:21:24;;;;;;;6.90;6.30;;;22.70;99.90;;;;;;6240451;22;20446;-90
2021/07/25 13:23:50;;;;;;;7.73;7.10;;;22.50;99.90;;;;;;6266833;22;20388;-93
2021/07/25 13:26:16;;;;;;;7.50;6.90;;;22.20;99.90;;;;;;6242195;22;20397;-90
2021/07/25 13:28:45;;;;;;;7.03;6.53;;;22.30;99.90;;;;;;6271588;22;20633;-92
2021/07/25 13:31:12;;;;;;;8.97;8.27;;;22.50;99.90;;;;;;6241419;22;20389;-92
2021/07/25 13:33:37;;;;;;;8.30;7.50;;;22.30;99.90;;;;;;6243369;22;20389;-93
2021/07/25 13:36:05;;;;;;;7.70;7.10;;;21.90;99.90;;;;;;6237906;22;20741;-91
2021/07/25 13:38:35;;;;;;;8.03;7.43;;;21.60;99.90;;;;;;6267029;22;20160;-90
2021/07/25 13:41:04;;;;;;;7.93;7.03;;;21.60;99.90;;;;;;6238897;22;20428;-90
2021/07/25 13:43:30;;;;;;;7.60;7.00;;;21.50;99.90;;;;;;6235954;22;20405;-91
2021/07/25 13:46:01;;;;;;;8.70;8.00;;;21.80;99.90;;;;;;6239599;22;20905;-91
2021/07/25 13:48:32;;;;;;;8.37;7.60;;;21.90;99.90;;;;;;6240644;22;20488;-91
2021/07/25 13:51:10;;;;;;;8.07;7.37;;;21.90;99.90;;;;;;6267594;22;20428;-91
2021/07/25 13:53:38;;;;;;;7.83;7.13;;;21.90;99.90;;;;;;6268697;22;20856;-91
2021/07/25 13:56:04;;;;;;;8.53;7.83;;;22.00;99.90;;;;;;6241109;22;20443;-91
2021/07/25 13:58:30;;;;;;;9.43;8.60;;;22.10;99.90;;;;;;6265996;22;20742;-90
2021/07/25 14:01:12;;;;;;;8.27;7.40;;;22.50;99.90;;;;;;6241817;22;20429;-91
2021/07/25 14:03:38;;;;;;;9.60;8.70;;;22.70;99.90;;;;;;6269598;22;20384;-91
2021/07/25 14:06:03;;;;;;;8.17;7.37;;;23.10;99.90;;;;;;6240691;22;20488;-91
2021/07/25 14:08:29;;;;;;;8.63;7.87;;;23.60;99.90;;;;;;6243455;22;20166;-91
2021/07/25 14:10:55;;;;;;;7.93;7.23;;;24.20;99.90;;;;;;6270618;22;20189;-91
2021/07/25 14:13:21;;;;;;;9.00;8.30;;;24.10;99.90;;;;;;6267490;22;20187;-92
2021/07/25 14:15:48;;;;;;;8.77;7.77;;;23.50;99.90;;;;;;6268804;22;20874;-93
2021/07/25 14:18:13;;;;;;;8.47;7.77;;;23.80;99.90;;;;;;6268779;22;20158;-91
2021/07/25 14:20:39;;;;;;;8.50;7.70;;;23.50;99.90;;;;;;6268080;22;20902;-91
2021/07/25 14:23:17;;;;;;;9.20;8.50;;;24.00;99.90;;;;;;6268485;22;20166;-92
2021/07/25 14:25:46;;;;;;;9.03;8.23;;;24.30;99.90;;;;;;6244205;22;20169;-91
2021/07/25 14:28:13;;;;;;;8.90;8.10;;;24.30;99.90;;;;;;6241518;22;20776;-92
2021/07/25 14:30:39;;;;;;;9.70;8.90;;;24.20;99.90;;;;;;6240569;22;20439;-90
2021/07/25 14:33:08;;;;;;;9.47;8.73;;;24.10;99.90;;;;;;6240157;22;20399;-91
2021/07/25 14:35:35;;;;;;;9.93;9.13;;;23.80;99.90;;;;;;6242256;22;20389;-91
2021/07/25 14:38:01;;;;;;;9.90;9.10;;;23.50;99.90;;;;;;6240917;22;20421;-91
2021/07/25 14:40:27;;;;;;;8.77;8.07;;;23.70;99.90;;;;;;6239539;22;20389;-91
2021/07/25 14:42:54;;;;;;;9.63;8.80;;;23.70;99.90;;;;;;6267521;22;20703;-92
2021/07/25 14:45:20;;;;;;;10.10;9.20;;;23.70;99.90;;;;;;6241160;22;20171;-92
2021/07/25 14:47:50;;;;;;;9.63;8.63;;;24.10;99.90;;;;;;6241612;22;20404;-92
2021/07/25 14:50:17;;;;;;;8.93;8.23;;;24.90;99.90;;;;;;6239114;22;20388;-91
2021/07/25 14:52:47;;;;;;;9.10;8.40;;;25.10;99.90;;;;;;6241203;22;20392;-92
2021/07/25 14:55:13;;;;;;;10.50;9.53;;;25.00;99.90;;;;;;6267737;22;20385;-92
2021/07/25 14:57:39;;;;;;;8.87;8.00;;;24.50;99.90;;;;;;6241977;22;22025;-92
2021/07/25 15:00:12;;;;;;;10.60;9.50;;;24.40;99.90;;;;;;6267115;22;20384;-92
2021/07/25 15:02:38;;;;;;;9.20;8.50;;;24.20;99.90;;;;;;6239042;22;20371;-91
2021/07/25 15:05:05;;;;;;;9.83;8.93;;;24.00;99.90;;;;;;6266111;22;20840;-92
2021/07/25 15:07:31;;;;;;;8.77;8.07;;;24.20;99.90;;;;;;6238637;22;20177;-91
2021/07/25 15:09:57;;;;;;;9.57;8.77;;;25.60;99.90;;;;;;6267101;22;20377;-92
2021/07/25 15:12:25;;;;;;;9.10;8.40;;;29.00;99.90;;;;;;6260835;22;20393;-91
2021/07/25 15:14:53;;;;;;;7.37;6.87;;;31.40;96.90;;;;;;6236246;22;20821;-91
2021/07/25 15:17:21;;;;;;;6.67;6.17;;;33.20;90.90;;;;;;6260817;22;20400;-91
2021/07/25 15:19:47;;;;;;;6.60;6.10;;;33.90;89.40;;;;;;6232188;22;20718;-90
2021/07/25 15:22:13;;;;;;;6.70;6.10;;;32.90;86.30;;;;;;6232037;22;20994;-92
2021/07/25 15:24:39;;;;;;;6.17;5.67;;;33.60;83.00;;;;;;6260899;22;20476;-89
2021/07/25 15:27:06;;;;;;;6.73;6.13;;;33.80;82.90;;;;;;6232631;22;20517;-90
2021/07/25 15:29:33;;;;;;;5.37;5.00;;;33.30;85.00;;;;;;6260273;22;20380;-90
2021/07/25 15:31:58;;;;;;;5.93;5.43;;;33.80;78.40;;;;;;6263186;22;20381;-92
2021/07/25 15:34:24;;;;;;;5.83;5.40;;;32.90;83.60;;;;;;6258556;22;20869;-92
2021/07/25 15:36:50;;;;;;;5.10;4.43;;;34.10;79.10;;;;;;6259783;22;20180;-90
2021/07/25 15:39:15;;;;;;;4.60;4.27;;;34.50;73.10;;;;;;6260419;22;20546;-92
2021/07/25 15:41:41;;;;;;;4.13;3.83;;;35.60;69.60;;;;;;6260342;22;20501;-90
2021/07/25 15:44:14;;;;;;;4.70;4.30;;;33.80;71.10;;;;;;6232838;22;20219;-92
2021/07/25 15:46:40;;;;;;;4.63;4.23;;;32.30;76.30;;;;;;6258328;22;20166;-90
2021/07/25 15:49:05;;;;;;;3.87;3.57;;;32.70;74.00;;;;;;6232931;22;20412;-90
2021/07/25 15:51:31;;;;;;;4.37;4.07;;;32.40;75.00;;;;;;6263153;22;20158;-93
2021/07/25 15:53:57;;;;;;;5.87;4.00;;;31.90;76.40;;;;;;6236514;22;20173;-91
2021/07/25 15:56:24;;;;;;;4.30;3.90;;;32.20;75.80;;;;;;6252932;22;20162;-91
2021/07/25 15:58:51;;;;;;;4.77;4.37;;;34.60;72.70;;;;;;6263911;22;20158;-95
2021/07/25 16:01:16;;;;;;;4.37;4.07;;;35.20;68.30;;;;;;6261566;22;20820;-92
2021/07/25 16:03:42;;;;;;;4.37;4.07;;;35.30;66.40;;;;;;6261689;22;20792;-93
2021/07/25 16:06:13;;;;;;;4.30;4.10;;;35.10;68.30;;;;;;6283936;22;20169;-93
2021/07/25 16:08:38;;;;;;;3.93;3.67;;;34.60;66.10;;;;;;6260784;22;20471;-94
2021/07/25 19:17:10;;;;;;;3.87;3.57;;;19.50;99.90;;;;;;6281048;22;20437;-96
2021/07/25 19:22:10;;;;;;;3.53;3.20;;;19.30;99.90;;;;;;6291666;22;20503;-94
2021/07/25 19:24:36;;;;;;;5.37;4.10;;;19.10;99.90;;;;;;6257749;22;20408;-93
2021/07/25 19:27:02;;;;;;;4.50;3.60;;;19.00;99.90;;;;;;6240081;22;20239;-91
2021/07/25 19:29:28;;;;;;;3.37;3.03;;;18.90;99.90;;;;;;6239975;22;20166;-90
2021/07/25 19:31:54;;;;;;;3.80;3.50;;;18.70;99.90;;;;;;6249188;22;20738;-90
2021/07/25 19:34:20;;;;;;;3.83;3.53;;;18.70;99.90;;;;;;6258820;22;20163;-89
2021/07/25 19:36:54;;;;;;;3.73;3.43;;;18.70;99.90;;;;;;6256016;22;20162;-91
2021/07/25 19:39:20;;;;;;;3.90;3.60;;;18.70;99.90;;;;;;6253176;22;20546;-91
2021/07/25 19:41:46;;;;;;;3.73;3.40;;;18.70;99.90;;;;;;6237949;22;20468;-90
2021/07/25 19:44:12;;;;;;;3.73;3.43;;;18.70;99.90;;;;;;6239150;22;20174;-91
2021/07/25 19:46:41;;;;;;;3.43;3.13;;;18.50;99.90;;;;;;6235947;22;20229;-91
2021/07/25 19:49:10;;;;;;;3.80;3.50;;;18.40;99.90;;;;;;6238391;22;20404;-91
2021/07/25 19:51:39;;;;;;;4.20;3.80;;;18.40;99.90;;;;;;6240138;22;20998;-91
2021/07/25 19:54:19;;;;;;;3.90;3.20;;;18.40;99.90;;;;;;6240230;22;20385;-91
2021/07/25 19:56:45;;;;;;;3.67;3.37;;;18.30;99.90;;;;;;6266549;22;20389;-92
2021/07/25 19:59:11;;;;;;;4.23;3.60;;;18.20;99.90;;;;;;6266107;22;20385;-90
2021/07/25 20:01:37;;;;;;;3.27;2.97;;;18.10;99.90;;;;;;6264400;22;20432;-90
2021/07/25 20:06:40;;;;;;;4.17;3.77;;;18.00;99.90;;;;;;6264835;22;20248;-91
2021/07/25 20:09:06;;;;;;;3.77;3.47;;;18.00;99.90;;;;;;6211414;22;20397;-91
2021/07/25 20:11:35;;;;;;;4.20;3.53;;;18.00;99.90;;;;;;6240444;22;20408;-93
2021/07/25 20:14:02;;;;;;;3.30;3.00;;;18.00;99.90;;;;;;6261749;22;20389;-91
2021/07/25 20:16:28;;;;;;;5.87;3.47;;;18.00;99.90;;;;;;6237537;22;20716;-90
2021/07/25 20:18:54;;;;;;;3.97;3.67;;;18.00;99.90;;;;;;6237349;22;20397;-89
2021/07/25 20:21:22;;;;;;;4.27;3.87;;;18.00;99.90;;;;;;6238442;22;20440;-90
2021/07/25 20:24:05;;;;;;;3.77;3.30;;;18.00;99.90;;;;;;6264441;22;20197;-91
2021/07/25 20:26:32;;;;;;;4.13;3.40;;;18.10;99.90;;;;;;6238670;22;20409;-91
2021/07/25 20:28:57;;;;;;;3.50;3.20;;;18.10;99.90;;;;;;6238610;22;20385;-91
2021/07/25 20:31:23;;;;;;;7.97;3.90;;;18.20;99.90;;;;;;6236697;22;20699;-91
2021/07/25 20:33:48;;;;;;;3.83;3.53;;;18.10;99.90;;;;;;6238444;22;20159;-91
2021/07/25 20:36:15;;;;;;;4.37;3.70;;;18.10;99.90;;;;;;6239849;22;20166;-91
2021/07/25 20:38:41;;;;;;;3.30;3.00;;;18.10;99.90;;;;;;6239487;22;20169;-92
2021/07/25 20:41:10;;;;;;;12.07;3.80;;;18.10;99.90;;;;;;6239014;22;20942;-91
2021/07/25 20:43:40;;;;;;;4.07;3.23;;;18.00;99.90;;;;;;6239628;22;20393;-91
2021/07/25 20:46:07;;;;;;;3.60;3.30;;;18.00;99.90;;;;;;6237969;22;20823;-92
2021/07/25 20:48:33;;;;;;;3.43;3.10;;;17.90;99.90;;;;;;6239230;22;20384;-92
2021/07/25 20:51:01;;;;;;;3.77;3.47;;;17.80;99.90;;;;;;6239416;22;20389;-91
2021/07/25 20:53:45;;;;;;;4.57;4.17;;;17.80;99.90;;;;;;6236481;22;20466;-91
2021/07/25 20:56:11;;;;;;;3.67;3.37;;;17.70;99.90;;;;;;6265021;22;20728;-91
2021/07/25 20:58:37;;;;;;;4.67;4.17;;;17.70;99.90;;;;;;6239762;22;20420;-92
2021/07/25 21:01:07;;;;;;;5.27;3.90;;;17.60;99.90;;;;;;6264665;22;20217;-91
2021/07/25 21:03:33;;;;;;;4.47;3.80;;;17.70;99.90;;;;;;6239288;22;20544;-92
2021/07/25 21:05:58;;;;;;;4.50;4.13;;;17.90;99.90;;;;;;6263730;22;20480;-91
2021/07/25 21:08:24;;;;;;;3.70;3.40;;;18.00;99.90;;;;;;6266451;22;20441;-91
2021/07/25 21:10:50;;;;;;;4.83;4.20;;;18.10;99.90;;;;;;6264287;22;20235;-90
2021/07/25 21:13:16;;;;;;;4.10;3.80;;;18.10;99.90;;;;;;6268213;22;20159;-91
2021/07/25 21:15:43;;;;;;;6.50;3.57;;;17.90;99.90;;;;;;6240476;22;20683;-92
2021/07/25 21:18:09;;;;;;;4.70;4.30;;;17.80;99.90;;;;;;6266443;22;20748;-91
2021/07/25 21:20:41;;;;;;;4.10;3.80;;;17.70;99.90;;;;;;6266354;22;20383;-92
2021/07/25 21:23:07;;;;;;;4.80;4.07;;;17.60;99.90;;;;;;6240953;22;20853;-91
2021/07/25 21:25:58;;;;;;;5.67;3.80;;;17.40;99.90;;;;;;6242540;22;20393;-91
2021/07/25 21:28:24;;;;;;;3.80;3.50;;;17.30;99.90;;;;;;6242659;22;20729;-91
2021/07/25 21:30:50;;;;;;;4.40;4.00;;;17.20;99.90;;;;;;6268467;22;20376;-91
2021/07/25 21:33:16;;;;;;;6.40;3.67;;;17.20;99.90;;;;;;6240496;22;20395;-91
2021/07/25 21:35:42;;;;;;;4.63;4.33;;;17.20;99.90;;;;;;6240691;22;20401;-92
2021/07/25 21:38:08;;;;;;;4.60;3.97;;;17.20;99.90;;;;;;6264427;22;20867;-92
2021/07/25 21:40:37;;;;;;;4.97;4.57;;;17.30;99.90;;;;;;6240661;22;20228;-92
2021/07/25 21:43:04;;;;;;;6.40;4.63;;;17.40;99.90;;;;;;6238548;22;20520;-93
2021/07/25 21:45:30;;;;;;;5.47;4.97;;;17.60;99.90;;;;;;6240391;22;20421;-93
2021/07/25 21:47:58;;;;;;;5.63;5.13;;;17.60;99.90;;;;;;6266059;22;20438;-93
2021/07/25 21:50:25;;;;;;;5.30;4.83;;;17.80;99.90;;;;;;6267882;22;20720;-93
2021/07/25 21:52:51;;;;;;;5.67;5.17;;;17.90;99.90;;;;;;6240462;22;20405;-92
2021/07/25 21:55:17;;;;;;;5.80;5.27;;;17.90;99.90;;;;;;6237487;22;20945;-92
2021/07/25 21:57:42;;;;;;;5.50;5.00;;;17.90;99.90;;;;;;6268028;22;20393;-92
2021/07/25 22:00:10;;;;;;;5.43;4.93;;;17.90;99.90;;;;;;6239107;22;20277;-91
2021/07/25 22:05:07;;;;;;;5.80;5.20;;;17.90;99.90;;;;;;6265889;22;20945;-90
2021/07/25 22:07:33;;;;;;;6.30;5.70;;;17.90;99.90;;;;;;6265916;22;20871;-90
2021/07/25 22:10:01;;;;;;;6.20;5.60;;;17.80;99.90;;;;;;6264366;22;20384;-90
2021/07/25 22:12:27;;;;;;;6.80;5.20;;;17.70;99.90;;;;;;6239076;22;20393;-91
2021/07/25 22:14:58;;;;;;;5.30;4.83;;;17.70;99.90;;;;;;6267442;22;20480;-90
2021/07/25 22:17:23;;;;;;;5.63;5.03;;;17.60;99.90;;;;;;6239725;22;20429;-91
2021/07/25 22:19:49;;;;;;;6.67;5.90;;;17.50;99.90;;;;;;6262499;22;20173;-91
2021/07/25 22:22:16;;;;;;;4.50;4.17;;;17.50;99.90;;;;;;6215096;22;20225;-91